createdAt,value
2023-01-12T00:01:58.591Z,1.52
2023-01-12T00:04:25.501Z,1.00
2023-01-12T00:06:52.139Z,1.70
2023-01-12T00:09:18.738Z,1.60
2023-01-12T00:11:45.328Z,1.35
2023-01-12T00:14:12.001Z,1.25
2023-01-12T00:16:38.962Z,1.13
2023-01-12T00:19:10.878Z,1.23
2023-01-12T00:21:58.930Z,1.95
2023-01-12T00:24:31.574Z,1.20
2023-01-12T00:27:00.157Z,1.40
2023-01-12T00:29:27.909Z,1.38
2023-01-12T00:31:56.534Z,1.55
2023-01-12T00:34:24.045Z,1.50
2023-01-12T00:36:50.816Z,0.90
2023-01-12T00:39:17.800Z,1.33
2023-01-12T00:42:03.543Z,1.40
2023-01-12T00:44:49.548Z,1.30
2023-01-12T00:47:16.971Z,1.30
2023-01-12T00:49:43.745Z,0.98
2023-01-12T00:52:29.300Z,1.77
2023-01-12T00:54:57.545Z,1.10
2023-01-12T00:57:24.220Z,1.23
2023-01-12T00:59:54.733Z,0.90
2023-01-12T01:02:21.502Z,1.92
2023-01-12T01:04:48.159Z,0.93
2023-01-12T01:07:16.037Z,0.80
2023-01-12T01:09:44.146Z,1.05
2023-01-12T01:12:11.086Z,0.88
2023-01-12T01:14:37.683Z,1.48
2023-01-12T01:17:04.311Z,1.25
2023-01-12T01:19:32.499Z,0.63
2023-01-12T01:24:41.655Z,0.30
2023-01-12T01:27:08.198Z,0.10
2023-01-12T01:29:34.778Z,0.73
2023-01-12T01:32:01.351Z,0.52
2023-01-12T01:34:27.961Z,0.30
2023-01-12T01:36:54.555Z,0.40
2023-01-12T01:39:21.140Z,0.35
2023-01-12T01:41:48.126Z,0.85
2023-01-12T01:44:30.088Z,0.65
2023-01-12T01:46:56.620Z,1.08
2023-01-12T01:49:39.620Z,0.20
2023-01-12T01:52:11.231Z,0.08
2023-01-12T01:54:44.857Z,0.10
2023-01-12T01:57:13.633Z,0.13
2023-01-12T01:59:44.056Z,0.60
2023-01-12T02:02:11.362Z,0.40
2023-01-12T02:04:38.568Z,1.02
2023-01-12T02:07:06.808Z,0.50
2023-01-12T02:09:33.400Z,0.82
2023-01-12T02:12:19.069Z,0.52
2023-01-12T02:15:08.202Z,0.88
2023-01-12T02:17:53.115Z,0.43
2023-01-12T02:20:41.169Z,0.90
2023-01-12T02:23:41.661Z,0.77
2023-01-12T02:26:30.033Z,1.30
2023-01-12T02:29:15.284Z,1.63
2023-01-12T02:32:20.636Z,1.23
2023-01-12T02:35:33.437Z,1.50
2023-01-12T02:38:11.084Z,1.00
2023-01-12T02:40:47.923Z,1.38
2023-01-12T02:43:21.943Z,1.25
2023-01-12T02:45:54.707Z,2.17
2023-01-12T02:48:36.901Z,1.70
2023-01-12T02:51:14.017Z,1.77
2023-01-12T02:53:47.613Z,1.85
2023-01-12T02:56:39.929Z,1.95
2023-01-12T02:59:14.813Z,1.50
2023-01-12T03:01:43.411Z,2.22
2023-01-12T03:04:13.905Z,1.58
2023-01-12T03:07:03.312Z,1.67
2023-01-12T03:09:44.675Z,1.40
2023-01-12T03:12:17.853Z,1.33
2023-01-12T03:14:48.604Z,1.60
2023-01-12T03:17:24.126Z,1.60
2023-01-12T03:19:52.034Z,0.88
2023-01-12T03:22:22.048Z,1.70
2023-01-12T03:24:54.616Z,1.85
2023-01-12T03:27:38.709Z,0.90
2023-01-12T03:30:38.512Z,2.10
2023-01-12T03:33:06.365Z,1.13
2023-01-12T03:35:37.245Z,1.13
2023-01-12T03:38:35.682Z,1.50
2023-01-12T03:41:13.586Z,1.25
2023-01-12T03:43:48.959Z,1.30
2023-01-12T03:46:38.640Z,0.95
2023-01-12T03:49:24.812Z,0.85
2023-01-12T03:51:53.107Z,0.68
2023-01-12T03:54:21.389Z,1.23
2023-01-12T03:56:49.986Z,0.77
2023-01-12T03:59:16.824Z,0.95
2023-01-12T04:01:43.529Z,1.02
2023-01-12T04:04:10.261Z,1.30
2023-01-12T04:06:36.853Z,0.63
2023-01-12T04:09:03.473Z,0.88
2023-01-12T04:11:48.901Z,1.38
2023-01-12T04:14:15.480Z,1.08
2023-01-12T04:16:42.027Z,1.02
2023-01-12T04:19:08.682Z,1.00
2023-01-12T04:21:53.618Z,1.13
2023-01-12T04:24:20.160Z,1.67
2023-01-12T04:26:46.919Z,1.35
2023-01-12T04:29:13.845Z,1.70
2023-01-12T04:31:40.468Z,1.08
2023-01-12T04:34:07.284Z,1.67
2023-01-12T04:36:33.885Z,1.50
2023-01-12T04:39:00.446Z,1.33
2023-01-12T04:41:26.970Z,0.98
2023-01-12T04:43:53.507Z,1.73
2023-01-12T04:46:20.081Z,1.42
2023-01-12T04:48:46.679Z,1.50
2023-01-12T04:51:13.877Z,1.13
2023-01-12T04:53:40.544Z,1.60
2023-01-12T04:56:08.342Z,1.92
2023-01-12T04:58:35.777Z,1.17
2023-01-12T05:01:13.354Z,1.40
2023-01-12T05:03:40.261Z,1.35
2023-01-12T05:06:07.093Z,1.08
2023-01-12T05:08:52.825Z,0.85
2023-01-12T05:11:21.255Z,0.95
2023-01-12T05:13:48.051Z,1.02
2023-01-12T05:16:17.042Z,1.70
2023-01-12T05:18:44.928Z,1.10
2023-01-12T05:21:12.863Z,1.40
2023-01-12T05:23:39.824Z,1.20
2023-01-12T05:26:07.186Z,1.23
2023-01-12T05:28:33.964Z,0.82
2023-01-12T05:31:09.679Z,0.95
2023-01-12T05:33:37.885Z,1.10
2023-01-12T05:36:06.346Z,1.40
2023-01-12T05:38:33.197Z,1.20
2023-01-12T05:41:01.156Z,1.40
2023-01-12T05:43:47.512Z,1.30
2023-01-12T05:46:15.162Z,1.23
2023-01-12T05:48:42.137Z,1.40
2023-01-12T05:51:10.652Z,1.02
2023-01-12T05:53:38.023Z,1.02
2023-01-12T05:56:10.508Z,0.98
2023-01-12T05:58:37.310Z,1.30
2023-01-12T06:01:08.518Z,1.48
2023-01-12T06:03:35.747Z,1.48
2023-01-12T06:06:03.161Z,1.02
2023-01-12T06:08:30.006Z,1.20
2023-01-12T06:11:01.156Z,1.10
2023-01-12T06:13:47.073Z,1.48
2023-01-12T06:16:14.067Z,1.00
2023-01-12T06:18:40.923Z,1.08
2023-01-12T06:21:09.296Z,1.48
2023-01-12T06:23:36.085Z,1.73
2023-01-12T06:26:04.612Z,1.02
2023-01-12T06:28:31.285Z,1.63
2023-01-12T06:30:59.835Z,1.38
2023-01-12T06:33:27.841Z,1.40
2023-01-12T06:35:55.532Z,1.60
2023-01-12T06:38:23.841Z,1.50
2023-01-12T06:40:50.732Z,0.93
2023-01-12T06:43:17.349Z,1.80
2023-01-12T06:48:39.249Z,1.52
2023-01-12T06:51:06.790Z,2.10
2023-01-12T06:53:34.537Z,1.45
2023-01-12T06:56:01.059Z,2.42
2023-01-12T06:58:27.600Z,1.70
2023-01-12T07:00:54.202Z,1.35
2023-01-12T07:03:20.983Z,2.55
2023-01-12T07:05:47.640Z,2.30
2023-01-12T07:08:18.933Z,1.85
2023-01-12T07:10:46.180Z,1.90
2023-01-12T07:13:12.866Z,1.50
2023-01-12T07:15:39.598Z,1.90
2023-01-12T07:18:06.320Z,2.17
2023-01-12T07:20:33.267Z,1.70
2023-01-12T07:22:59.936Z,1.92
2023-01-12T07:25:26.937Z,1.80
2023-01-12T07:27:57.965Z,2.05
2023-01-12T07:30:25.669Z,2.17
2023-01-12T07:32:53.179Z,1.98
2023-01-12T07:35:20.091Z,2.35
2023-01-12T07:37:51.200Z,2.03
2023-01-12T07:40:18.320Z,1.77
2023-01-12T07:42:44.985Z,2.15
2023-01-12T07:45:11.747Z,1.92
2023-01-12T07:47:38.912Z,2.65
2023-01-12T07:50:05.896Z,2.35
2023-01-12T07:52:32.660Z,2.08
2023-01-12T07:54:59.335Z,2.10
2023-01-12T07:57:25.958Z,1.52
2023-01-12T07:59:54.874Z,1.80
2023-01-12T08:02:21.534Z,1.75
2023-01-12T08:04:48.225Z,1.38
2023-01-12T08:07:15.006Z,1.60
2023-01-12T08:09:41.777Z,1.33
2023-01-12T08:12:08.590Z,1.42
2023-01-12T08:14:37.411Z,0.90
2023-01-12T08:17:16.363Z,0.80
2023-01-12T08:19:50.787Z,1.00
2023-01-12T08:22:22.478Z,0.73
2023-01-12T08:24:57.538Z,0.95
2023-01-12T08:27:28.765Z,0.88
2023-01-12T08:29:58.835Z,0.70
2023-01-12T08:32:27.994Z,0.75
2023-01-12T08:34:57.500Z,0.60
2023-01-12T08:37:25.460Z,0.40
2023-01-12T08:39:52.681Z,0.73
2023-01-12T08:42:20.345Z,0.47
2023-01-12T08:44:49.775Z,0.63
2023-01-12T08:47:28.258Z,0.50
2023-01-12T08:49:55.598Z,0.52
2023-01-12T08:52:28.813Z,0.60
2023-01-12T08:54:56.217Z,0.85
2023-01-12T08:57:23.109Z,0.50
2023-01-12T08:59:49.748Z,0.50
2023-01-12T09:02:16.849Z,0.80
2023-01-12T09:04:43.581Z,0.52
2023-01-12T09:07:11.440Z,0.40
2023-01-12T09:09:38.432Z,0.60
2023-01-12T09:12:06.012Z,0.20
2023-01-12T09:14:38.362Z,0.50
2023-01-12T09:17:10.408Z,0.25
2023-01-12T09:19:37.049Z,0.52
2023-01-12T09:22:08.441Z,0.30
2023-01-12T09:24:35.169Z,0.40
2023-01-12T09:27:01.884Z,0.50
2023-01-12T09:29:28.425Z,0.63
2023-01-12T09:31:55.056Z,0.73
2023-01-12T09:34:21.686Z,0.40
2023-01-12T09:36:50.188Z,0.88
2023-01-12T09:39:27.230Z,0.40
2023-01-12T09:42:13.818Z,0.40
2023-01-12T09:48:01.251Z,0.95
2023-01-12T09:50:34.762Z,0.30
2023-01-12T09:53:21.300Z,0.82
2023-01-12T09:55:51.599Z,0.43
2023-01-12T09:58:30.369Z,0.40
2023-01-12T10:00:59.244Z,0.47
2023-01-12T10:03:38.407Z,0.80
2023-01-12T10:06:07.204Z,0.30
2023-01-12T10:08:49.096Z,0.80
2023-01-12T10:11:46.163Z,0.40
2023-01-12T10:14:50.442Z,0.35
2023-01-12T10:17:38.646Z,0.38
2023-01-12T10:20:28.566Z,0.35
2023-01-12T10:26:33.255Z,0.55
2023-01-12T10:29:02.728Z,0.60
2023-01-12T10:31:29.442Z,0.60
2023-01-12T10:34:13.994Z,0.95
2023-01-12T10:36:49.434Z,0.60
2023-01-12T10:39:29.567Z,0.70
2023-01-12T10:42:42.592Z,0.80
2023-01-12T10:45:24.663Z,0.70
2023-01-12T10:48:00.204Z,0.70
2023-01-12T10:50:32.633Z,0.35
2023-01-12T10:53:06.018Z,0.77
2023-01-12T10:55:38.777Z,1.00
2023-01-12T10:58:16.891Z,0.80
2023-01-12T11:00:48.249Z,0.68
2023-01-12T11:03:33.799Z,0.98
2023-01-12T11:06:27.011Z,0.55
2023-01-12T11:08:57.409Z,0.80
2023-01-12T11:11:29.522Z,1.08
2023-01-12T11:13:59.117Z,1.30
2023-01-12T11:16:41.055Z,0.80
2023-01-12T11:19:32.796Z,0.80
2023-01-12T11:24:55.477Z,0.65
2023-01-12T11:27:24.988Z,1.15
2023-01-12T11:29:58.133Z,1.17
2023-01-12T11:35:26.504Z,0.95
2023-01-12T11:37:55.396Z,1.00
2023-01-12T11:40:32.705Z,0.85
2023-01-12T11:43:32.952Z,1.38
2023-01-12T11:46:12.568Z,0.80
2023-01-12T11:48:49.870Z,0.80
2023-01-12T11:51:16.687Z,0.70
2023-01-12T11:53:44.248Z,0.60
2023-01-12T11:56:37.968Z,0.80
2023-01-12T11:59:26.495Z,0.80
2023-01-12T12:02:11.512Z,0.40
2023-01-12T12:05:06.113Z,0.80
2023-01-12T12:07:53.991Z,0.90
2023-01-12T12:10:50.114Z,0.88
2023-01-12T12:13:22.705Z,0.80
2023-01-12T12:16:17.372Z,0.65
2023-01-12T12:18:57.998Z,0.50
2023-01-12T12:21:30.873Z,0.80
2023-01-12T12:24:07.903Z,0.80
2023-01-12T12:26:39.010Z,0.80
2023-01-12T12:29:17.599Z,0.70
2023-01-12T12:31:56.503Z,0.60
2023-01-12T12:34:35.117Z,0.90
2023-01-12T12:37:15.881Z,0.95
2023-01-12T12:39:49.077Z,0.68
2023-01-12T12:43:18.834Z,0.70
2023-01-12T12:46:01.244Z,0.28
2023-01-12T12:48:44.480Z,0.70
2023-01-12T12:51:12.983Z,0.40
2023-01-12T12:53:46.090Z,0.40
2023-01-12T12:56:17.695Z,0.73
2023-01-12T12:58:52.870Z,0.50
2023-01-12T13:01:28.156Z,0.52
2023-01-12T13:03:57.682Z,0.63
2023-01-12T13:06:43.977Z,0.85
2023-01-12T13:09:16.340Z,0.85
2023-01-12T13:11:53.728Z,0.60
2023-01-12T13:14:38.288Z,0.80
2023-01-12T13:17:20.361Z,0.40
2023-01-12T13:20:08.186Z,0.88
2023-01-12T13:22:49.324Z,0.85
2023-01-12T13:25:19.568Z,1.33
2023-01-12T13:28:01.288Z,0.98
2023-01-12T13:30:33.050Z,1.77
2023-01-12T13:33:23.229Z,1.05
2023-01-12T13:35:49.968Z,1.60
2023-01-12T13:38:45.057Z,1.13
2023-01-12T13:41:36.935Z,0.63
2023-01-12T13:44:05.807Z,0.77
2023-01-12T13:46:44.002Z,0.90
2023-01-12T13:49:28.938Z,1.75
2023-01-12T13:52:01.531Z,0.88
2023-01-12T13:54:29.170Z,0.65
2023-01-12T13:56:59.741Z,1.15
2023-01-12T13:59:31.504Z,1.00
2023-01-12T14:01:58.217Z,1.10
2023-01-12T14:08:11.229Z,1.48
2023-01-12T14:10:57.566Z,1.58
2023-01-12T14:13:48.151Z,0.95
2023-01-12T14:16:35.123Z,1.10
2023-01-12T14:19:02.080Z,0.73
2023-01-12T14:21:33.200Z,1.38
2023-01-12T14:24:31.980Z,0.60
2023-01-12T14:26:58.517Z,1.17
2023-01-12T14:29:25.170Z,0.80
2023-01-12T14:31:53.793Z,1.02
2023-01-12T14:34:36.199Z,0.73
2023-01-12T14:37:07.763Z,1.05
2023-01-12T14:39:46.861Z,1.00
2023-01-12T14:42:36.419Z,1.25
2023-01-12T14:45:21.974Z,0.68
2023-01-12T14:47:48.591Z,0.82
2023-01-12T14:50:16.468Z,1.00
2023-01-12T14:52:45.681Z,1.05
2023-01-12T14:55:24.355Z,0.70
2023-01-12T14:57:57.330Z,1.25
2023-01-12T15:00:31.286Z,0.73
2023-01-12T15:02:59.487Z,0.93
2023-01-12T15:05:28.971Z,0.70
2023-01-12T15:07:58.932Z,0.77
2023-01-12T15:10:36.176Z,1.10
2023-01-12T15:13:40.981Z,1.10
2023-01-12T15:16:27.704Z,1.73
2023-01-12T15:22:32.892Z,0.77
2023-01-12T15:25:18.877Z,1.50
2023-01-12T15:27:45.542Z,1.85
2023-01-12T15:30:12.471Z,1.85
2023-01-12T15:32:48.092Z,1.30
2023-01-12T15:35:17.944Z,2.10
2023-01-12T15:37:45.089Z,1.73
2023-01-12T15:40:20.540Z,1.33
2023-01-12T15:42:48.078Z,1.73
2023-01-12T15:45:19.983Z,1.00
2023-01-12T15:47:47.089Z,1.40
2023-01-12T15:50:13.738Z,1.52
2023-01-12T15:52:43.103Z,1.02
2023-01-12T15:55:16.972Z,1.40
2023-01-12T15:57:44.578Z,1.80
2023-01-12T16:00:15.599Z,2.90
2023-01-12T16:02:47.497Z,4.43
2023-01-12T16:05:16.145Z,4.05
2023-01-12T16:07:43.077Z,1.63
2023-01-12T16:10:10.480Z,2.85
2023-01-12T16:12:37.142Z,1.95
2023-01-12T16:15:05.404Z,1.85
2023-01-12T16:17:32.108Z,1.83
2023-01-12T16:19:58.830Z,1.60
2023-01-12T16:22:30.660Z,2.78
2023-01-12T16:24:57.295Z,2.30
2023-01-12T16:27:26.386Z,2.28
2023-01-12T16:29:53.843Z,2.17
2023-01-12T16:32:27.064Z,2.20
2023-01-12T16:34:53.834Z,1.85
2023-01-12T16:37:22.919Z,2.35
2023-01-12T16:39:49.673Z,2.13
2023-01-12T16:42:16.281Z,2.60
2023-01-12T16:44:42.858Z,4.32
2023-01-12T16:47:18.899Z,4.53
2023-01-12T16:49:51.470Z,3.05
2023-01-12T16:52:20.988Z,2.80
2023-01-12T16:54:47.530Z,3.13
2023-01-12T16:57:16.562Z,3.17
2023-01-12T16:59:44.413Z,3.60
2023-01-12T17:02:21.856Z,4.15
2023-01-12T17:04:52.034Z,3.55
2023-01-12T17:07:19.152Z,4.10
2023-01-12T17:09:45.824Z,4.03
2023-01-12T17:12:12.592Z,3.83
2023-01-12T17:14:39.309Z,4.25
2023-01-12T17:17:09.318Z,4.05
2023-01-12T17:19:37.683Z,3.17
2023-01-12T17:22:06.747Z,3.65
2023-01-12T17:24:34.496Z,3.90
2023-01-12T17:27:01.303Z,3.63
2023-01-12T17:29:28.687Z,3.78
2023-01-12T17:32:03.265Z,3.60
2023-01-12T17:34:32.200Z,3.80
2023-01-12T17:37:02.577Z,3.55
2023-01-12T17:39:29.351Z,3.55
2023-01-12T17:42:14.761Z,3.90
2023-01-12T17:44:42.819Z,3.20
2023-01-12T17:47:10.765Z,4.07
2023-01-12T17:49:37.643Z,3.13
2023-01-12T17:52:04.715Z,3.15
2023-01-12T17:54:31.267Z,2.33
2023-01-12T17:56:57.977Z,2.38
2023-01-12T17:59:24.743Z,2.20
2023-01-12T18:01:52.034Z,3.25
2023-01-12T18:04:19.037Z,2.50
2023-01-12T18:06:46.189Z,4.00
2023-01-12T18:09:13.691Z,2.47
2023-01-12T18:11:40.829Z,2.65
2023-01-12T18:14:07.942Z,2.30
2023-01-12T18:16:35.034Z,2.63
2023-01-12T18:19:04.501Z,2.35
2023-01-12T18:21:31.825Z,1.98
2023-01-12T18:23:58.959Z,2.35
2023-01-12T18:26:28.543Z,2.10
2023-01-12T18:28:56.898Z,1.50
2023-01-12T18:31:29.460Z,1.80
2023-01-12T18:34:10.537Z,1.77
2023-01-12T18:36:39.427Z,1.90
2023-01-12T18:39:09.171Z,1.48
2023-01-12T18:41:57.348Z,1.52
2023-01-12T18:44:24.762Z,1.48
2023-01-12T18:47:09.991Z,1.17
2023-01-12T18:49:37.833Z,1.02
2023-01-12T18:52:27.961Z,1.05
2023-01-12T18:54:54.755Z,1.17
2023-01-12T18:57:24.365Z,1.13
2023-01-12T18:59:55.966Z,1.10
2023-01-12T19:02:23.272Z,1.13
2023-01-12T19:08:04.110Z,1.02
2023-01-12T19:10:34.322Z,1.17
2023-01-12T19:13:21.909Z,0.93
2023-01-12T19:16:07.369Z,1.17
2023-01-12T19:18:37.016Z,0.95
2023-01-12T19:21:26.707Z,1.40
2023-01-12T19:24:12.113Z,1.23
2023-01-12T19:27:02.633Z,1.38
2023-01-12T19:29:29.189Z,1.63
2023-01-12T19:31:55.715Z,1.73
2023-01-12T19:34:24.651Z,2.08
2023-01-12T19:36:51.283Z,1.23
2023-01-12T19:39:26.841Z,1.23
2023-01-12T19:42:12.254Z,1.50
2023-01-12T19:44:38.833Z,1.17
2023-01-12T19:47:05.377Z,2.83
2023-01-12T19:49:32.001Z,1.48
2023-01-12T19:52:02.188Z,1.38
2023-01-12T19:54:29.259Z,1.45
2023-01-12T19:56:56.260Z,1.20
2023-01-12T19:59:22.864Z,0.85
2023-01-12T20:01:50.668Z,0.93
2023-01-12T20:04:17.379Z,1.20
2023-01-12T20:06:43.958Z,1.48
2023-01-12T20:09:11.617Z,2.10
2023-01-12T20:11:39.108Z,1.30
2023-01-12T20:14:05.656Z,1.65
2023-01-12T20:16:32.262Z,1.95
2023-01-12T20:18:59.565Z,1.90
2023-01-12T20:21:26.133Z,1.63
2023-01-12T20:23:52.685Z,1.48
2023-01-12T20:26:19.535Z,2.05
2023-01-12T20:28:46.379Z,2.22
2023-01-12T20:31:16.084Z,1.88
2023-01-12T20:33:43.129Z,1.27
2023-01-12T20:36:11.473Z,2.50
2023-01-12T20:38:38.415Z,2.08
2023-01-12T20:41:06.020Z,1.70
2023-01-12T20:43:33.595Z,1.00
2023-01-12T20:46:00.719Z,0.98
2023-01-12T20:48:27.578Z,1.42
2023-01-12T20:50:54.287Z,1.02
2023-01-12T20:53:21.008Z,0.88
2023-01-12T20:55:51.636Z,1.05
2023-01-12T20:58:19.005Z,1.25
2023-01-12T21:00:45.834Z,1.20
2023-01-12T21:03:12.703Z,0.95
2023-01-12T21:05:47.172Z,1.30
2023-01-12T21:08:15.713Z,1.55
2023-01-12T21:10:49.964Z,1.25
2023-01-12T21:13:16.830Z,1.80
2023-01-12T21:15:43.676Z,1.50
2023-01-12T21:18:15.213Z,1.60
2023-01-12T21:20:43.455Z,1.23
2023-01-12T21:23:10.476Z,1.60
2023-01-12T21:25:42.177Z,1.20
2023-01-12T21:28:10.408Z,1.27
2023-01-12T21:30:41.738Z,1.45
2023-01-12T21:33:08.609Z,1.55
2023-01-12T21:35:35.360Z,1.23
2023-01-12T21:38:02.514Z,1.77
2023-01-12T21:40:29.264Z,2.00
2023-01-12T21:43:08.375Z,1.77
2023-01-12T21:45:47.236Z,1.50
2023-01-12T21:48:16.595Z,1.80
2023-01-12T21:50:43.329Z,1.88
2023-01-12T21:53:21.114Z,1.80
2023-01-12T21:55:56.496Z,1.80
2023-01-12T21:58:28.438Z,1.83
2023-01-12T22:00:56.120Z,2.05
2023-01-12T22:06:06.901Z,1.70
2023-01-12T22:08:38.822Z,2.13
2023-01-12T22:11:10.812Z,1.70
2023-01-12T22:13:37.791Z,1.80
2023-01-12T22:16:10.403Z,1.45
2023-01-12T22:18:37.837Z,1.60
2023-01-12T22:21:07.048Z,1.45
2023-01-12T22:23:34.813Z,1.50
2023-01-12T22:26:10.411Z,2.08
2023-01-12T22:28:39.851Z,1.98
2023-01-12T22:31:10.557Z,1.63
2023-01-12T22:33:37.542Z,1.58
2023-01-12T22:36:05.744Z,1.60
2023-01-12T22:38:32.691Z,1.73
2023-01-12T22:41:10.872Z,1.85
2023-01-12T22:43:40.698Z,2.38
2023-01-12T22:46:19.662Z,2.28
2023-01-12T22:48:50.642Z,2.13
2023-01-12T22:51:18.612Z,1.83
2023-01-12T22:53:45.161Z,2.08
2023-01-12T22:56:12.169Z,1.42
2023-01-12T22:58:39.577Z,2.05
2023-01-12T23:01:08.934Z,1.52
2023-01-12T23:03:36.849Z,1.98
2023-01-12T23:06:04.588Z,1.83
2023-01-12T23:08:31.323Z,1.55
2023-01-12T23:11:19.876Z,1.63
2023-01-12T23:13:46.886Z,1.65
2023-01-12T23:16:15.955Z,1.10
2023-01-12T23:18:44.089Z,1.27
2023-01-12T23:21:16.736Z,1.48
2023-01-12T23:23:55.353Z,1.70
2023-01-12T23:26:27.891Z,0.90
2023-01-12T23:28:56.716Z,1.40
2023-01-12T23:31:26.316Z,1.63
2023-01-12T23:33:53.404Z,1.63
2023-01-12T23:36:23.170Z,1.17
2023-01-12T23:38:54.366Z,1.60
2023-01-12T23:41:23.160Z,1.33
2023-01-12T23:43:51.596Z,1.58
2023-01-12T23:46:21.849Z,1.40
2023-01-12T23:48:49.649Z,1.30
2023-01-12T23:51:16.281Z,1.30
2023-01-12T23:53:43.039Z,1.65
2023-01-12T23:56:12.395Z,0.90
2023-01-12T23:58:39.738Z,0.45
